Time;durP1;ratioP1;P1;durP2;ratioP2;P2;SDS_P1;SDS_P2;PMS_P1;PMS_P2;Temp;Humidity;BMP_temperature;BMP_pressure;BME280_temperature;BME280_humidity;BME280_pressure;Samples;Min_cycle;Max_cycle;Signal;HPM_P1;HPM_P2
2021/09/14 00:01:54;;;;;;;5.47;4.30;;;;;;;18.53;38.13;93950.44;4983409;28;20041;-76
2021/09/14 00:04:19;;;;;;;6.07;4.47;;;;;;;18.56;39.22;93965.09;4983336;28;20037;-77
2021/09/14 00:06:44;;;;;;;6.15;4.60;;;;;;;18.62;38.47;93975.22;4986114;28;20497;-77
2021/09/14 00:09:10;;;;;;;9.02;4.68;;;;;;;18.75;39.01;93957.75;4986243;28;20069;-76
2021/09/14 00:11:36;;;;;;;6.60;5.10;;;;;;;18.80;38.90;93962.84;4983988;28;20527;-76
2021/09/14 00:14:03;;;;;;;5.20;4.18;;;;;;;18.73;39.22;93978.88;4985478;28;20045;-77
2021/09/14 00:16:30;;;;;;;6.50;5.13;;;;;;;18.31;39.48;93964.66;4984053;28;20948;-77
2021/09/14 00:18:55;;;;;;;5.97;4.60;;;;;;;18.22;39.94;93969.50;4985628;28;20026;-77
2021/09/14 00:21:21;;;;;;;5.93;4.30;;;;;;;18.18;39.67;93977.53;4982819;28;20472;-77
2021/09/14 00:23:46;;;;;;;9.23;5.03;;;;;;;18.10;39.45;93962.38;4983291;28;20453;-77
2021/09/14 00:26:12;;;;;;;7.15;5.28;;;;;;;18.12;39.73;93962.00;4987757;28;20133;-76
2021/09/14 00:28:37;;;;;;;4.50;4.10;;;;;;;18.08;40.03;93961.97;4983755;28;20041;-77
2021/09/14 00:31:02;;;;;;;15.40;4.80;;;;;;;18.12;39.98;93954.72;4986531;28;20083;-77
2021/09/14 00:33:29;;;;;;;5.18;4.53;;;;;;;17.97;40.78;93972.50;4980814;28;20096;-77
2021/09/14 00:35:54;;;;;;;5.97;4.30;;;;;;;17.90;40.09;93979.63;4986594;28;20050;-76
2021/09/14 00:38:20;;;;;;;6.57;4.15;;;;;;;17.96;40.10;93981.72;4986045;28;20495;-76
2021/09/14 00:40:45;;;;;;;5.30;4.80;;;;;;;17.90;39.94;93975.03;4983117;28;20038;-76
2021/09/14 00:43:21;;;;;;;6.32;4.10;;;;;;;17.92;39.73;93964.69;4983494;28;20034;-76
2021/09/14 00:45:47;;;;;;;10.40;4.85;;;;;;;17.84;39.71;93973.00;4982999;28;20088;-78
2021/09/14 00:48:13;;;;;;;8.18;4.70;;;;;;;17.86;40.22;93979.56;4985623;28;20060;-77
2021/09/14 00:50:39;;;;;;;6.57;3.90;;;;;;;17.80;39.79;93970.22;4985814;28;20933;-76
2021/09/14 00:53:05;;;;;;;4.82;4.30;;;;;;;17.73;40.74;93967.41;4988607;28;20042;-77
2021/09/14 00:55:30;;;;;;;5.97;3.90;;;;;;;17.82;39.54;93981.41;4988047;28;20032;-74
2021/09/14 00:57:56;;;;;;;5.95;4.10;;;;;;;17.84;39.97;93973.00;4985216;28;20048;-77
2021/09/14 01:00:21;;;;;;;9.57;4.60;;;;;;;17.62;40.31;93971.78;4988442;28;20548;-77
2021/09/14 01:02:47;;;;;;;4.88;4.07;;;;;;;17.62;40.52;93990.59;4985195;28;20049;-76
2021/09/14 01:05:13;;;;;;;6.88;3.65;;;;;;;17.78;40.69;93985.16;4987759;28;20035;-77
2021/09/14 01:07:40;;;;;;;7.40;4.90;;;;;;;17.69;40.62;93980.00;4988012;28;20100;-77
2021/09/14 01:10:07;;;;;;;6.95;6.13;;;;;;;17.40;40.87;93959.03;4987189;28;20105;-76
2021/09/14 01:12:32;;;;;;;6.22;5.63;;;;;;;17.57;41.37;93980.13;4986905;28;20104;-77
2021/09/14 01:14:59;;;;;;;10.85;6.35;;;;;;;17.43;41.98;93977.91;4987422;28;20029;-77
2021/09/14 01:17:25;;;;;;;7.70;6.20;;;;;;;17.51;41.39;93984.22;4986443;28;20519;-77
2021/09/14 01:19:55;;;;;;;9.43;5.95;;;;;;;17.49;41.34;93984.59;4991027;28;20504;-76
2021/09/14 01:22:20;;;;;;;7.75;6.18;;;;;;;17.27;41.10;93966.41;4985987;28;20034;-76
2021/09/14 01:24:46;;;;;;;8.32;5.68;;;;;;;17.38;41.57;93967.44;4993403;28;20075;-76
2021/09/14 01:27:11;;;;;;;8.50;5.05;;;;;;;17.52;41.03;93981.19;4989602;28;20034;-76
2021/09/14 01:32:21;;;;;;;7.10;5.23;;;;;;;17.29;41.41;93961.50;4991201;28;20484;-76
2021/09/14 01:34:46;;;;;;;5.88;4.82;;;;;;;17.23;41.84;93973.63;4986932;28;20042;-76
2021/09/14 01:37:12;;;;;;;6.30;5.10;;;;;;;17.16;41.42;93966.19;4986294;28;20034;-77
2021/09/14 01:39:37;;;;;;;8.65;4.47;;;;;;;17.28;40.99;93977.97;4988492;28;20069;-76
2021/09/14 01:42:03;;;;;;;8.02;4.70;;;;;;;17.17;40.88;93962.38;4988526;28;20070;-76
2021/09/14 01:44:28;;;;;;;9.52;4.25;;;;;;;17.27;40.71;93976.38;4989027;28;20851;-76
2021/09/14 01:46:54;;;;;;;6.18;3.75;;;;;;;17.17;40.98;93965.06;4977576;28;20045;-76
2021/09/14 01:49:19;;;;;;;5.03;3.40;;;;;;;17.17;40.89;93962.38;4987685;28;20512;-76
2021/09/14 01:51:44;;;;;;;4.85;3.47;;;;;;;17.26;40.65;93980.97;4991902;28;20879;-76
2021/09/14 01:54:10;;;;;;;4.85;3.88;;;;;;;17.18;40.86;93965.84;4990576;28;20122;-76
2021/09/14 01:56:36;;;;;;;8.15;3.92;;;;;;;17.08;40.77;93964.44;4990287;28;20065;-76
2021/09/14 01:59:02;;;;;;;5.95;4.38;;;;;;;17.05;40.95;93970.53;4993309;28;20104;-77
2021/09/14 02:01:31;;;;;;;8.48;4.47;;;;;;;17.03;41.17;93983.53;4989880;28;20025;-77
2021/09/14 02:58:44;;;;;;;9.85;6.95;;;;;;;16.26;44.34;93996.56;4986597;28;20646;-77
2021/09/14 03:01:13;;;;;;;12.68;7.40;;;;;;;15.89;44.22;93952.25;4991764;28;20033;-77
2021/09/14 03:03:41;;;;;;;12.63;7.07;;;;;;;15.95;44.36;93972.34;4990432;28;20035;-76
2021/09/14 03:06:09;;;;;;;13.18;6.95;;;;;;;16.09;44.30;93983.47;4985144;28;20117;-75
2021/09/14 03:08:36;;;;;;;13.90;7.90;;;;;;;16.21;44.25;94002.19;4985353;28;20089;-76
2021/09/14 03:11:16;;;;;;;8.07;6.95;;;;;;;16.25;44.69;93997.69;4989935;28;20596;-76
2021/09/14 03:13:42;;;;;;;9.52;6.30;;;;;;;15.82;44.52;93949.41;4990980;28;20107;-76
2021/09/14 03:16:09;;;;;;;9.20;7.53;;;;;;;15.96;44.69;93976.59;4987494;28;20079;-76
2021/09/14 03:18:36;;;;;;;9.68;6.35;;;;;;;16.14;44.37;94002.00;4993607;28;20049;-76
2021/09/14 03:21:04;;;;;;;10.98;6.85;;;;;;;16.04;44.47;93989.06;4986675;28;20479;-76
2021/09/14 03:23:30;;;;;;;8.80;6.78;;;;;;;15.92;44.86;93993.72;4985874;28;20045;-76
2021/09/14 03:25:55;;;;;;;11.30;6.85;;;;;;;15.94;44.73;93984.19;4986806;28;20252;-76
2021/09/14 03:28:21;;;;;;;8.85;5.80;;;;;;;16.09;44.58;93996.09;4987763;28;20168;-76
2021/09/14 03:30:48;;;;;;;8.20;6.97;;;;;;;16.16;44.08;93999.75;4994931;28;20030;-78
2021/09/14 03:33:14;;;;;;;7.45;5.88;;;;;;;16.05;44.31;93979.91;4989365;28;20105;-75
2021/09/14 03:35:39;;;;;;;7.38;5.45;;;;;;;16.12;43.95;94003.47;4988459;28;20144;-76
2021/09/14 03:38:05;;;;;;;9.35;6.18;;;;;;;16.12;43.98;94003.47;4986937;28;20034;-76
2021/09/14 03:40:30;;;;;;;7.00;5.47;;;;;;;16.14;44.11;94010.03;4986389;28;20510;-76
2021/09/14 03:42:56;;;;;;;10.52;5.53;;;;;;;16.23;43.68;94005.28;4987296;28;20077;-76
2021/09/14 03:45:21;;;;;;;11.18;6.30;;;;;;;16.04;44.22;94007.84;4988430;28;20046;-76
2021/09/14 03:47:46;;;;;;;11.23;7.50;;;;;;;16.00;44.20;94015.03;4987185;28;20536;-76
2021/09/14 03:50:12;;;;;;;9.82;6.32;;;;;;;15.81;44.63;93998.78;4985191;28;20048;-76
2021/09/14 03:52:38;;;;;;;11.38;6.90;;;;;;;15.58;44.59;93968.25;4986997;28;20044;-76
2021/09/14 03:55:05;;;;;;;10.52;7.93;;;;;;;15.79;45.15;94001.03;4987698;28;20022;-77
2021/09/14 03:57:30;;;;;;;8.50;7.63;;;;;;;15.92;45.04;94002.56;4987606;28;20070;-76
2021/09/14 03:59:55;;;;;;;14.98;8.85;;;;;;;16.03;44.57;94027.78;4988959;28;20042;-76
2021/09/14 04:08:49;;;;;;;12.85;6.90;;;;;;;15.70;45.65;94029.88;4986620;28;20583;-76
2021/09/14 04:10:08;;;;;;;10.38;7.13;;;;;;;15.63;46.02;94033.16;4989641;28;20043;-76
2021/09/14 04:12:34;;;;;;;9.75;7.70;;;;;;;15.49;45.74;94007.81;4984507;28;20038;-76
2021/09/14 04:14:59;;;;;;;8.88;6.30;;;;;;;15.53;46.11;94027.47;4985945;28;20030;-77
2021/09/14 04:17:25;;;;;;;17.25;6.50;;;;;;;15.49;46.20;94029.28;4984733;28;20096;-76
2021/09/14 04:19:50;;;;;;;10.68;6.15;;;;;;;15.52;45.84;94034.72;4988326;28;20042;-76
2021/09/14 04:22:16;;;;;;;7.75;5.35;;;;;;;15.67;44.88;94030.56;4985842;28;20034;-76
2021/09/14 04:24:41;;;;;;;24.02;6.93;;;;;;;15.66;45.14;94039.72;4985774;28;20762;-76
2021/09/14 04:27:10;;;;;;;9.38;5.40;;;;;;;15.74;45.20;94041.50;4985302;28;20096;-76
2021/09/14 04:29:35;;;;;;;9.95;5.95;;;;;;;15.66;45.01;94043.19;4987631;28;20053;-76
2021/09/14 04:32:02;;;;;;;6.45;5.43;;;;;;;15.55;45.43;94023.31;4985170;28;20746;-76
2021/09/14 04:34:27;;;;;;;7.80;5.40;;;;;;;15.65;45.06;94030.09;4984530;28;20440;-76
2021/09/14 04:36:53;;;;;;;11.18;5.50;;;;;;;15.48;45.54;93998.22;4986878;28;20030;-77
2021/09/14 04:39:19;;;;;;;7.10;6.13;;;;;;;15.64;45.26;94029.34;4984869;28;20074;-77
2021/09/14 04:41:45;;;;;;;12.25;7.88;;;;;;;15.61;45.90;94037.28;4988198;28;20042;-78
2021/09/14 04:44:11;;;;;;;12.80;6.95;;;;;;;15.63;46.07;94032.38;4985100;28;20038;-76
2021/09/14 04:46:36;;;;;;;14.20;6.60;;;;;;;15.79;45.85;94043.94;4985758;28;20054;-77
2021/09/14 04:49:03;;;;;;;9.57;6.60;;;;;;;15.58;46.32;93995.06;4989196;28;20658;-76
2021/09/14 04:51:28;;;;;;;7.88;6.35;;;;;;;15.87;46.53;94038.44;4989020;28;20125;-76
2021/09/14 04:53:54;;;;;;;7.30;6.40;;;;;;;15.92;46.04;94042.78;4985560;28;20042;-76
2021/09/14 04:56:19;;;;;;;12.77;6.90;;;;;;;16.14;45.72;94050.28;4989805;28;20039;-77
2021/09/14 04:58:46;;;;;;;15.27;7.90;;;;;;;16.26;45.52;94042.19;4990573;28;20111;-76
2021/09/14 05:01:15;;;;;;;14.20;7.60;;;;;;;16.23;46.03;94042.88;4991239;28;20033;-76
2021/09/14 05:03:40;;;;;;;13.10;7.05;;;;;;;16.33;45.69;94046.97;4991658;28;20081;-76
2021/09/14 05:06:05;;;;;;;14.02;6.95;;;;;;;16.37;45.88;94047.09;4987551;28;20233;-76
2021/09/14 05:08:31;;;;;;;16.38;6.32;;;;;;;16.54;45.70;94050.25;4993331;28;20042;-76
2021/09/14 05:10:58;;;;;;;19.50;8.23;;;;;;;16.58;46.11;94056.47;4989682;28;20409;-77
2021/09/14 05:13:24;;;;;;;12.68;8.77;;;;;;;16.60;45.25;94048.88;4984597;28;20021;-76
2021/09/14 05:15:49;;;;;;;16.27;8.70;;;;;;;16.78;45.62;94062.72;4988547;28;20018;-76
2021/09/14 05:18:16;;;;;;;15.73;8.60;;;;;;;16.78;45.48;94049.31;4988394;28;20082;-76
2021/09/14 05:20:42;;;;;;;14.88;9.25;;;;;;;16.86;44.64;94051.06;4990319;28;20044;-76
2021/09/14 05:23:12;;;;;;;17.50;10.23;;;;;;;16.95;45.22;94046.28;4992526;28;20034;-76
2021/09/14 05:25:38;;;;;;;39.75;11.15;;;;;;;17.15;44.86;94072.16;4989722;28;20058;-76
2021/09/14 05:28:04;;;;;;;19.92;10.48;;;;;;;17.08;44.46;94058.50;4991730;28;20481;-76
2021/09/14 05:30:29;;;;;;;20.33;10.75;;;;;;;17.13;44.68;94063.63;4993033;28;20050;-76
2021/09/14 05:32:55;;;;;;;18.77;11.90;;;;;;;17.30;44.85;94078.63;4989827;28;20042;-77
2021/09/14 05:35:25;;;;;;;20.75;13.60;;;;;;;17.43;44.65;94082.78;4990196;28;20037;-77
2021/09/14 05:37:51;;;;;;;23.90;14.07;;;;;;;17.38;44.41;94066.13;4990905;28;20046;-76
2021/09/14 05:40:16;;;;;;;23.95;14.35;;;;;;;17.62;44.06;94084.72;4991450;28;20026;-76
2021/09/14 05:42:41;;;;;;;17.67;13.50;;;;;;;17.66;44.01;94085.59;4992460;28;20041;-76
2021/09/14 05:45:07;;;;;;;21.17;13.65;;;;;;;17.76;43.52;94085.03;4990871;28;20148;-77
2021/09/14 05:47:33;;;;;;;25.98;13.50;;;;;;;17.85;43.41;94087.53;4988106;28;20050;-76
2021/09/14 05:50:00;;;;;;;21.98;14.45;;;;;;;17.70;43.56;94081.06;4985847;28;20034;-76
2021/09/14 05:52:26;;;;;;;21.98;14.15;;;;;;;17.69;43.78;94084.13;4988933;28;20034;-76
2021/09/14 05:54:51;;;;;;;26.65;15.77;;;;;;;17.77;43.65;94086.59;4990577;28;20022;-76
2021/09/14 05:57:17;;;;;;;25.15;14.07;;;;;;;17.67;43.88;94089.06;4988721;28;20053;-76
2021/09/14 05:59:42;;;;;;;28.65;14.05;;;;;;;17.91;42.72;94097.66;4990251;28;20408;-77
2021/09/14 06:02:08;;;;;;;29.88;14.63;;;;;;;17.98;42.98;94097.88;4984224;28;20038;-77
2021/09/14 06:04:33;;;;;;;22.20;14.38;;;;;;;17.76;43.06;94074.28;4991551;28;20172;-76
2021/09/14 06:06:58;;;;;;;23.33;14.48;;;;;;;17.85;42.26;94082.16;4991823;28;20708;-76
2021/09/14 06:09:24;;;;;;;26.20;14.05;;;;;;;18.00;42.27;94106.34;4986315;28;20030;-76
2021/09/14 06:11:49;;;;;;;23.02;13.57;;;;;;;17.88;42.57;94097.59;4990835;28;20042;-76
2021/09/14 06:14:15;;;;;;;24.52;14.38;;;;;;;17.89;43.00;94093.78;4986502;28;20042;-76
2021/09/14 06:16:40;;;;;;;31.88;14.38;;;;;;;17.90;42.79;94077.28;4988125;28;20169;-76
2021/09/14 06:19:06;;;;;;;30.17;14.75;;;;;;;18.07;43.20;94103.03;4989081;28;20858;-76
2021/09/14 06:21:37;;;;;;;21.65;14.80;;;;;;;18.29;42.21;94093.47;4987924;28;20497;-76
2021/09/14 06:24:02;;;;;;;24.35;14.80;;;;;;;18.24;42.59;94091.06;4987918;28;20077;-76
2021/09/14 06:26:28;;;;;;;23.58;15.50;;;;;;;18.10;43.07;94093.47;4986720;28;20141;-76
2021/09/14 06:28:53;;;;;;;29.25;15.95;;;;;;;18.23;42.79;94094.91;4988425;28;20819;-77
2021/09/14 06:31:20;;;;;;;19.08;15.23;;;;;;;18.20;42.96;94092.91;4990843;28;20041;-77
2021/09/14 06:33:45;;;;;;;27.20;14.38;;;;;;;18.32;43.25;94095.47;4991896;28;20026;-77
2021/09/14 06:36:11;;;;;;;32.85;13.95;;;;;;;18.48;42.53;94082.69;4984679;28;20052;-76
2021/09/14 06:38:37;;;;;;;28.75;15.07;;;;;;;18.79;41.84;94101.38;4988501;28;20153;-76
2021/09/14 06:41:03;;;;;;;21.75;15.55;;;;;;;18.80;41.82;94092.19;4987229;28;20037;-76
2021/09/14 06:43:28;;;;;;;27.85;14.57;;;;;;;18.96;42.02;94102.06;4987923;28;20053;-77
2021/09/14 06:45:54;;;;;;;19.98;14.82;;;;;;;19.10;40.99;94086.16;4986882;28;20057;-76
2021/09/14 06:48:19;;;;;;;15.93;13.55;;;;;;;19.17;41.51;94099.72;4969040;28;20486;-76
2021/09/14 06:50:45;;;;;;;22.00;14.60;;;;;;;19.27;41.03;94107.22;4978295;28;20042;-76
2021/09/14 06:53:11;;;;;;;22.50;14.90;;;;;;;19.40;40.96;94105.91;4986563;28;20129;-76
2021/09/14 06:55:37;;;;;;;23.20;14.60;;;;;;;19.20;40.37;94072.84;4987071;28;20107;-78
2021/09/14 06:58:03;;;;;;;27.75;15.85;;;;;;;19.33;39.75;94108.47;4988220;28;21211;-76
2021/09/14 07:00:28;;;;;;;26.23;15.73;;;;;;;19.62;39.77;94110.50;4988568;28;20038;-76
2021/09/14 07:02:53;;;;;;;27.42;15.15;;;;;;;19.63;40.38;94114.75;4988289;28;20137;-77
2021/09/14 07:05:19;;;;;;;25.90;16.80;;;;;;;19.62;40.22;94112.41;4990369;28;20504;-76
2021/09/14 07:07:45;;;;;;;25.67;17.13;;;;;;;19.46;40.42;94087.50;4990543;28;22875;-76
2021/09/14 07:10:11;;;;;;;30.80;17.10;;;;;;;19.70;39.73;94097.91;4995411;28;20037;-77
2021/09/14 07:12:36;;;;;;;31.02;19.05;;;;;;;19.84;39.54;94113.53;4987589;28;20064;-77
2021/09/14 07:15:03;;;;;;;23.10;18.10;;;;;;;19.96;39.63;94116.00;4989380;28;20037;-77
2021/09/14 07:17:29;;;;;;;28.45;18.55;;;;;;;20.00;40.02;94112.19;4988154;28;20962;-76
2021/09/14 07:19:54;;;;;;;33.10;18.55;;;;;;;19.96;38.85;94118.69;4983001;28;20037;-76
2021/09/14 07:22:20;;;;;;;26.70;18.00;;;;;;;19.91;39.11;94103.59;4966961;28;20035;-77
2021/09/14 07:24:47;;;;;;;30.95;19.40;;;;;;;19.86;40.50;94127.41;4991775;28;20664;-77
2021/09/14 07:27:12;;;;;;;26.25;18.27;;;;;;;20.01;40.10;94124.56;4988834;28;20045;-78
2021/09/14 07:29:38;;;;;;;28.90;18.73;;;;;;;20.08;39.14;94132.00;4988745;28;20061;-76
2021/09/14 07:32:04;;;;;;;31.38;19.67;;;;;;;19.90;39.05;94087.75;4990949;28;20501;-79
2021/09/14 07:34:30;;;;;;;29.33;18.20;;;;;;;20.17;39.23;94127.91;4988160;28;20022;-77
2021/09/14 07:36:56;;;;;;;34.33;19.25;;;;;;;20.23;39.79;94111.38;4997962;28;20018;-77
2021/09/14 07:39:22;;;;;;;33.05;18.52;;;;;;;20.21;39.09;94105.56;4986234;28;20088;-76
2021/09/14 07:41:47;;;;;;;29.92;19.50;;;;;;;20.09;39.83;94083.00;4989977;28;20580;-77
2021/09/14 07:44:12;;;;;;;48.17;18.85;;;;;;;20.35;38.90;94111.91;4986899;28;20038;-77
2021/09/14 07:46:38;;;;;;;29.20;19.27;;;;;;;20.39;38.07;94096.53;4988884;28;20042;-79
2021/09/14 07:49:03;;;;;;;33.80;18.98;;;;;;;20.50;39.05;94108.25;4985192;28;20033;-77
2021/09/14 07:51:29;;;;;;;25.80;18.05;;;;;;;20.46;38.86;94102.03;4986588;28;20041;-76
2021/09/14 07:53:55;;;;;;;30.30;18.05;;;;;;;20.50;38.91;94097.44;4988237;28;20037;-76
2021/09/14 07:56:20;;;;;;;26.63;18.63;;;;;;;20.75;38.98;94119.31;4987978;28;20093;-76
2021/09/14 07:58:46;;;;;;;28.70;17.27;;;;;;;20.86;38.66;94116.75;4989054;28;20038;-76
2021/09/14 08:01:11;;;;;;;27.08;17.60;;;;;;;20.79;38.04;94106.63;4987532;28;20030;-77
2021/09/14 08:03:36;;;;;;;27.23;17.88;;;;;;;21.01;39.78;94099.53;4989181;28;20050;-76
2021/09/14 08:06:02;;;;;;;32.35;17.75;;;;;;;21.06;38.42;94112.72;4987574;28;20046;-76
2021/09/14 08:08:28;;;;;;;31.17;17.80;;;;;;;21.00;37.34;94114.22;4989064;28;20040;-78
2021/09/14 08:10:53;;;;;;;33.30;17.55;;;;;;;21.14;36.95;94122.47;4989149;28;20042;-77
2021/09/14 08:13:18;;;;;;;30.48;17.73;;;;;;;21.23;36.24;94111.31;4993992;28;20117;-77
2021/09/14 08:15:44;;;;;;;27.58;16.27;;;;;;;21.32;37.61;94117.97;4985927;28;20056;-77
2021/09/14 08:18:09;;;;;;;36.13;18.02;;;;;;;21.09;36.91;94098.47;4985173;28;20057;-77
2021/09/14 08:20:35;;;;;;;26.38;15.30;;;;;;;21.34;36.80;94115.69;4988743;28;20502;-79
2021/09/14 08:23:00;;;;;;;29.75;13.95;;;;;;;21.50;36.42;94110.03;4980244;28;20038;-76
2021/09/14 08:25:26;;;;;;;19.58;13.43;;;;;;;21.42;35.56;94103.75;4986677;28;20381;-76
2021/09/14 08:27:51;;;;;;;19.92;12.70;;;;;;;21.45;35.69;94108.44;4987652;28;20625;-76
2021/09/14 08:30:17;;;;;;;23.13;13.18;;;;;;;21.41;36.11;94091.38;4986649;28;20691;-76
2021/09/14 08:32:42;;;;;;;20.67;13.48;;;;;;;21.46;35.96;94093.75;4986142;28;20253;-77
2021/09/14 08:35:08;;;;;;;27.33;13.98;;;;;;;21.64;35.81;94096.63;4987531;28;20030;-77
2021/09/14 08:37:34;;;;;;;14.60;11.45;;;;;;;21.82;34.65;94083.97;4985988;28;20043;-77
2021/09/14 08:39:59;;;;;;;21.80;11.38;;;;;;;21.85;33.89;94083.22;4987808;28;20029;-76
2021/09/14 08:42:25;;;;;;;17.25;10.75;;;;;;;21.94;35.18;94099.13;4985255;28;20555;-76
2021/09/14 08:44:51;;;;;;;18.00;10.73;;;;;;;21.93;34.21;94088.69;4987756;28;20052;-77
2021/09/14 08:47:17;;;;;;;18.75;8.93;;;;;;;21.77;34.22;94070.00;4984331;28;20030;-77
2021/09/14 08:49:43;;;;;;;15.15;8.82;;;;;;;21.75;33.61;94056.09;4987399;28;20046;-77
2021/09/14 08:52:11;;;;;;;15.98;8.75;;;;;;;21.81;33.78;94058.06;4986242;28;20037;-76
2021/09/14 08:54:36;;;;;;;10.27;6.82;;;;;;;21.99;33.56;94070.94;4986740;28;20034;-78
2021/09/14 08:57:02;;;;;;;17.48;7.05;;;;;;;21.94;33.41;94058.53;4987363;28;20034;-76
2021/09/14 08:59:30;;;;;;;9.80;6.60;;;;;;;22.06;34.36;94077.16;4985435;28;20038;-76
2021/09/14 09:02:03;;;;;;;8.98;6.82;;;;;;;22.13;33.57;94076.41;4987188;28;20129;-77
2021/09/14 09:04:29;;;;;;;12.27;5.65;;;;;;;22.12;33.37;94064.81;4984778;28;20073;-76
2021/09/14 09:06:54;;;;;;;13.25;6.13;;;;;;;22.30;33.04;94073.03;4987561;28;20025;-76
2021/09/14 09:09:22;;;;;;;11.02;6.80;;;;;;;22.33;32.03;94068.78;4991037;28;20045;-76
2021/09/14 09:12:00;;;;;;;10.77;6.65;;;;;;;22.20;32.92;94049.34;4985403;28;20026;-77
2021/09/14 09:14:35;;;;;;;10.07;6.70;;;;;;;22.07;32.72;94051.63;4985761;28;20047;-77
2021/09/14 09:17:06;;;;;;;8.10;5.95;;;;;;;22.16;32.92;94045.84;4986158;28;20050;-78
2021/09/14 09:19:31;;;;;;;15.43;7.15;;;;;;;22.14;32.94;94046.25;4986635;28;20038;-78
2021/09/14 09:21:58;;;;;;;12.13;5.68;;;;;;;22.47;32.64;94063.41;4985887;28;20651;-76
2021/09/14 09:24:24;;;;;;;10.43;5.93;;;;;;;22.55;31.86;94059.56;4992306;28;20035;-76
2021/09/14 09:26:49;;;;;;;8.30;5.32;;;;;;;22.53;32.19;94051.84;4993168;28;20049;-76
2021/09/14 09:29:25;;;;;;;8.45;5.80;;;;;;;22.68;31.63;94063.50;4987961;28;20049;-76
2021/09/14 09:31:52;;;;;;;10.20;4.85;;;;;;;22.75;31.56;94052.66;4995368;28;20061;-76
2021/09/14 09:34:28;;;;;;;11.57;5.30;;;;;;;22.77;31.28;94050.34;4988045;28;20492;-78
2021/09/14 09:37:04;;;;;;;12.43;5.50;;;;;;;22.81;31.40;94058.47;4987035;28;20034;-76
2021/09/14 09:39:45;;;;;;;5.88;4.70;;;;;;;22.94;31.14;94048.84;4994932;28;20114;-76
2021/09/14 09:42:12;;;;;;;8.48;5.28;;;;;;;22.84;31.03;94039.50;4985997;28;20124;-76
2021/09/14 09:44:39;;;;;;;12.30;4.97;;;;;;;22.91;31.37;94047.69;4996548;28;20081;-78
2021/09/14 09:47:06;;;;;;;8.10;4.78;;;;;;;22.91;30.78;94042.25;4992586;28;20105;-76
2021/09/14 09:49:33;;;;;;;7.72;4.88;;;;;;;23.00;31.01;94050.00;4992440;28;20034;-76
2021/09/14 09:51:59;;;;;;;12.50;4.82;;;;;;;23.14;30.18;94048.09;4991962;28;20091;-77
2021/09/14 09:54:25;;;;;;;12.88;5.50;;;;;;;23.05;30.87;94050.41;4990931;28;20042;-76
2021/09/14 09:56:52;;;;;;;7.60;5.35;;;;;;;22.96;31.19;94041.09;4990029;28;20038;-76
2021/09/14 09:59:18;;;;;;;6.60;5.72;;;;;;;22.97;31.17;94034.53;4992434;28;20038;-76
2021/09/14 10:02:02;;;;;;;10.43;5.30;;;;;;;23.05;31.17;94044.97;4989531;28;20041;-77
2021/09/14 10:04:29;;;;;;;9.73;5.45;;;;;;;22.97;30.36;94020.97;4990165;28;20116;-77
2021/09/14 10:06:57;;;;;;;8.05;4.97;;;;;;;23.13;29.84;94035.69;4990019;28;20121;-76
2021/09/14 10:09:32;;;;;;;10.63;5.43;;;;;;;23.15;29.72;94029.88;4988884;28;20049;-76
2021/09/14 10:11:58;;;;;;;8.52;4.63;;;;;;;23.14;29.73;94029.09;4988751;28;20421;-76
2021/09/14 10:14:24;;;;;;;12.93;5.57;;;;;;;23.17;30.70;94018.63;4990700;28;20222;-76
2021/09/14 10:16:50;;;;;;;11.82;5.00;;;;;;;23.36;30.14;94027.16;4988527;28;20096;-76
2021/09/14 10:19:25;;;;;;;10.40;5.03;;;;;;;23.47;29.43;94035.28;4994813;28;20113;-76
2021/09/14 10:22:02;;;;;;;10.07;4.90;;;;;;;23.38;29.57;94018.63;4990609;28;20570;-76
2021/09/14 10:24:29;;;;;;;9.30;5.35;;;;;;;23.12;29.34;94017.84;4986745;28;20049;-76
2021/09/14 10:27:09;;;;;;;12.48;5.35;;;;;;;23.08;30.00;93998.09;4996947;28;20756;-76
2021/09/14 10:29:35;;;;;;;9.18;5.50;;;;;;;23.41;29.25;94018.63;4987969;28;20058;-76
2021/09/14 10:32:08;;;;;;;8.15;4.78;;;;;;;23.50;28.79;94004.69;4986952;28;20501;-77
2021/09/14 10:34:39;;;;;;;9.90;4.78;;;;;;;23.60;29.28;94014.75;4990889;28;20045;-76
2021/09/14 10:37:10;;;;;;;9.07;5.40;;;;;;;23.67;29.13;94009.28;4989301;28;20068;-77
2021/09/14 10:39:44;;;;;;;9.30;5.15;;;;;;;23.76;28.76;94012.38;4994303;28;20527;-77
2021/09/14 10:42:20;;;;;;;10.20;4.78;;;;;;;23.74;30.50;93992.22;4987601;28;20059;-77
2021/09/14 10:44:51;;;;;;;11.80;4.75;;;;;;;23.92;31.13;94014.66;4993894;28;20069;-76
2021/09/14 10:47:19;;;;;;;9.32;4.57;;;;;;;24.02;28.49;94003.75;4993886;28;20049;-76
2021/09/14 10:49:46;;;;;;;8.07;5.20;;;;;;;23.95;28.37;94013.88;4984862;28;20034;-76
2021/09/14 10:52:13;;;;;;;5.55;5.00;;;;;;;23.86;27.88;94017.00;4987450;28;20482;-76
2021/09/14 10:54:46;;;;;;;6.82;4.90;;;;;;;23.85;27.76;94001.91;4985628;28;20637;-77
2021/09/14 10:57:12;;;;;;;7.82;4.70;;;;;;;23.70;27.80;94003.09;4990089;28;20077;-77
2021/09/14 10:59:37;;;;;;;10.63;5.45;;;;;;;23.69;27.68;93996.09;4985639;28;20649;-78
2021/09/14 11:02:04;;;;;;;9.25;4.97;;;;;;;23.76;27.96;93993.34;4987328;28;20042;-78
2021/09/14 11:04:29;;;;;;;7.78;4.88;;;;;;;23.79;27.54;94003.44;4983184;28;20113;-77
2021/09/14 11:06:55;;;;;;;10.10;5.22;;;;;;;23.91;27.96;94007.66;4989245;28;20036;-76
2021/09/14 11:09:25;;;;;;;6.72;4.82;;;;;;;23.96;26.64;93999.91;4988202;28;20046;-76
2021/09/14 11:11:50;;;;;;;8.52;4.90;;;;;;;23.98;27.78;93994.84;4991562;28;20053;-76
2021/09/14 11:14:16;;;;;;;6.72;4.22;;;;;;;24.18;27.78;93994.41;4990718;28;20039;-76
2021/09/14 11:16:46;;;;;;;9.25;4.72;;;;;;;24.29;27.31;93984.28;4986968;28;20050;-76
2021/09/14 11:19:12;;;;;;;5.18;4.22;;;;;;;24.44;28.48;93985.75;4989166;28;20053;-76
2021/09/14 11:21:44;;;;;;;7.43;4.65;;;;;;;24.66;29.64;93992.59;4988051;28;20129;-76
2021/09/14 11:24:10;;;;;;;7.68;4.60;;;;;;;24.59;27.40;93979.03;4991050;28;20116;-76
2021/09/14 11:26:35;;;;;;;5.47;4.70;;;;;;;24.65;26.59;93995.72;4987571;28;20034;-76
2021/09/14 11:29:01;;;;;;;8.55;4.15;;;;;;;24.63;26.85;93993.41;4989052;28;20580;-76
2021/09/14 11:31:31;;;;;;;7.68;4.45;;;;;;;24.50;26.42;93989.59;4987499;28;20033;-76
2021/09/14 11:33:58;;;;;;;6.25;4.68;;;;;;;24.50;26.31;93976.00;4990246;28;20026;-76
2021/09/14 11:36:25;;;;;;;8.63;4.75;;;;;;;24.67;26.64;93986.00;4988503;28;20038;-77
2021/09/14 11:39:05;;;;;;;7.65;4.45;;;;;;;24.60;25.31;93987.97;4987774;28;20041;-76
2021/09/14 11:41:36;;;;;;;8.40;4.10;;;;;;;24.66;26.23;93981.72;4993151;28;20034;-77
2021/09/14 11:44:04;;;;;;;6.15;4.38;;;;;;;24.80;26.07;93981.66;4987076;28;20046;-76
2021/09/14 11:46:29;;;;;;;6.18;4.32;;;;;;;24.70;26.98;93971.59;4989706;28;20989;-77
2021/09/14 11:48:58;;;;;;;6.80;4.82;;;;;;;24.89;27.23;93983.16;4982132;28;20034;-76
2021/09/14 11:51:43;;;;;;;5.93;4.88;;;;;;;24.83;28.57;93964.53;4984589;28;20104;-76
2021/09/14 11:54:13;;;;;;;6.93;4.53;;;;;;;24.93;27.56;93962.16;4983087;28;20041;-77
2021/09/14 11:56:39;;;;;;;7.40;4.47;;;;;;;25.11;26.96;93976.38;4985355;28;20038;-78
2021/09/14 11:59:15;;;;;;;4.80;4.30;;;;;;;25.21;27.33;93979.03;4988431;28;20089;-76
2021/09/14 12:01:40;;;;;;;5.90;4.25;;;;;;;25.30;30.05;93986.72;4987795;28;20060;-77
2021/09/14 12:04:15;;;;;;;9.95;3.55;;;;;;;25.32;26.59;93973.50;4983774;28;20812;-76
2021/09/14 12:06:41;;;;;;;4.50;3.92;;;;;;;25.42;24.73;93972.63;4985885;28;20394;-76
2021/09/14 12:09:10;;;;;;;8.73;4.20;;;;;;;25.49;24.74;93967.13;4986825;28;20052;-76
2021/09/14 12:11:39;;;;;;;6.50;4.28;;;;;;;25.32;24.51;93959.91;4988409;28;20070;-75
2021/09/14 12:14:09;;;;;;;3.95;3.55;;;;;;;25.33;25.59;93966.88;4986857;28;20050;-76
2021/09/14 12:16:38;;;;;;;11.60;4.07;;;;;;;25.47;24.47;93953.13;4987058;28;20501;-76
2021/09/14 12:19:04;;;;;;;8.77;4.43;;;;;;;25.40;22.97;93947.75;4986943;28;20034;-76
2021/09/14 12:21:30;;;;;;;4.82;4.00;;;;;;;25.43;23.32;93959.78;4987207;28;20103;-75
2021/09/14 12:23:56;;;;;;;8.43;4.13;;;;;;;25.44;26.35;93964.06;4989170;28;20511;-76
2021/09/14 12:26:27;;;;;;;4.57;4.10;;;;;;;25.24;25.30;93956.44;4986645;28;20046;-76
2021/09/14 12:28:56;;;;;;;5.78;4.07;;;;;;;25.32;25.67;93962.63;4988593;28;20030;-78